createdAt,value
2023-01-25T00:00:55.979Z,2.12
2023-01-25T00:05:00.891Z,2.06
2023-01-25T00:09:03.570Z,2.07
2023-01-25T00:13:05.865Z,1.92
2023-01-25T00:17:07.775Z,1.75
2023-01-25T00:21:27.991Z,1.70
2023-01-25T00:25:29.987Z,1.96
2023-01-25T00:29:31.965Z,1.81
2023-01-25T00:34:06.178Z,2.02
2023-01-25T00:38:28.963Z,2.08
2023-01-25T00:42:31.028Z,1.91
2023-01-25T00:46:33.152Z,1.71
2023-01-25T00:50:37.665Z,1.83
2023-01-25T00:54:41.015Z,1.90
2023-01-25T00:58:43.537Z,1.84
2023-01-25T01:02:46.452Z,1.63
2023-01-25T01:06:49.713Z,1.82
2023-01-25T01:10:51.661Z,1.76
2023-01-25T01:14:53.701Z,1.98
2023-01-25T01:18:55.649Z,1.91
2023-01-25T01:22:57.923Z,1.79
2023-01-25T01:26:59.841Z,1.82
2023-01-25T01:31:03.447Z,1.64
2023-01-25T01:35:09.844Z,1.90
2023-01-25T01:39:12.421Z,1.95
2023-01-25T01:43:23.356Z,1.91
2023-01-25T01:47:39.107Z,1.85
2023-01-25T01:51:55.813Z,1.88
2023-01-25T01:56:05.563Z,1.73
2023-01-25T02:00:08.076Z,1.70
2023-01-25T02:04:21.326Z,1.72
2023-01-25T02:08:24.791Z,1.41
2023-01-25T02:12:27.946Z,1.12
2023-01-25T02:16:30.181Z,1.05
2023-01-25T02:20:37.538Z,1.45
2023-01-25T02:24:47.287Z,1.45
2023-01-25T02:28:58.398Z,1.44
2023-01-25T02:33:00.855Z,1.55
2023-01-25T02:37:02.957Z,1.05
2023-01-25T02:41:18.154Z,0.95
2023-01-25T02:45:25.355Z,1.07
2023-01-25T02:49:27.983Z,1.22
2023-01-25T02:53:29.950Z,1.41
2023-01-25T02:57:31.647Z,1.28
2023-01-25T03:01:38.391Z,1.35
2023-01-25T03:05:41.745Z,1.48
2023-01-25T03:09:43.691Z,1.27
2023-01-25T03:13:45.644Z,1.29
2023-01-25T03:17:47.890Z,1.13
2023-01-25T03:21:49.915Z,1.14
2023-01-25T03:25:52.880Z,1.23
2023-01-25T03:29:54.751Z,0.99
2023-01-25T03:34:00.139Z,1.06
2023-01-25T03:38:07.476Z,0.97
2023-01-25T03:42:09.459Z,0.97
2023-01-25T03:46:11.488Z,1.02
2023-01-25T03:50:14.008Z,0.80
2023-01-25T03:54:16.967Z,0.80
2023-01-25T03:58:19.206Z,0.82
2023-01-25T04:02:21.024Z,0.59
2023-01-25T04:06:23.325Z,0.56
2023-01-25T04:10:26.002Z,0.57
2023-01-25T04:14:43.569Z,0.56
2023-01-25T04:18:48.316Z,0.29
2023-01-25T04:22:50.922Z,0.63
2023-01-25T04:26:54.842Z,0.76
2023-01-25T04:30:58.147Z,0.78
2023-01-25T04:35:06.673Z,0.57
2023-01-25T04:39:08.879Z,0.46
2023-01-25T04:43:18.610Z,0.53
2023-01-25T04:47:21.167Z,0.06
2023-01-25T04:51:23.500Z,0.15
2023-01-25T04:55:26.119Z,0.05
2023-01-25T04:59:30.157Z,0.01
2023-01-25T05:03:32.130Z,0.26
2023-01-25T05:07:34.319Z,0.15
2023-01-25T05:11:36.504Z,0.23
2023-01-25T05:15:57.453Z,0.22
2023-01-25T05:19:59.880Z,0.35
2023-01-25T05:24:01.608Z,0.33
2023-01-25T05:28:06.873Z,0.28
2023-01-25T05:32:40.888Z,0.45
2023-01-25T05:36:43.121Z,0.37
2023-01-25T05:40:44.893Z,0.29
2023-01-25T05:44:48.154Z,0.17
2023-01-25T05:48:51.294Z,0.18
2023-01-25T05:52:54.028Z,0.06
2023-01-25T05:56:56.238Z,-0.08
2023-01-25T06:01:02.809Z,0.04
2023-01-25T06:05:14.930Z,0.23
2023-01-25T06:09:17.410Z,0.18
2023-01-25T06:13:22.353Z,0.09
2023-01-25T06:17:24.322Z,0.21
2023-01-25T06:21:33.337Z,0.15
2023-01-25T06:25:35.255Z,0.15
2023-01-25T06:29:37.202Z,0.12
2023-01-25T06:33:40.659Z,0.24
2023-01-25T06:37:42.851Z,0.13
2023-01-25T06:41:44.773Z,0.12
2023-01-25T06:45:46.741Z,0.02
2023-01-25T06:49:48.761Z,0.02
2023-01-25T06:53:50.847Z,0.00
2023-01-25T06:57:52.807Z,0.23
2023-01-25T07:01:54.816Z,0.07
2023-01-25T07:06:01.911Z,0.08
2023-01-25T07:10:04.347Z,0.17
2023-01-25T07:14:06.649Z,0.07
2023-01-25T07:18:16.152Z,0.30
2023-01-25T07:22:18.724Z,0.27
2023-01-25T07:26:25.688Z,0.26
2023-01-25T07:30:27.604Z,0.23
2023-01-25T07:34:29.576Z,0.20
2023-01-25T07:38:31.614Z,0.25
2023-01-25T07:42:33.381Z,0.29
2023-01-25T07:46:47.342Z,0.13
2023-01-25T07:51:09.229Z,0.17
2023-01-25T07:55:11.342Z,0.21
2023-01-25T07:59:14.272Z,0.08
2023-01-25T08:03:16.198Z,0.32
2023-01-25T08:07:18.241Z,0.26
2023-01-25T08:11:23.159Z,0.21
2023-01-25T08:15:24.868Z,0.27
2023-01-25T08:19:26.984Z,0.20
2023-01-25T08:23:29.506Z,-0.08
2023-01-25T08:27:31.609Z,0.20
2023-01-25T08:31:35.277Z,0.10
2023-01-25T08:35:37.304Z,0.03
2023-01-25T08:39:39.306Z,0.21
2023-01-25T08:43:42.460Z,0.08
2023-01-25T08:47:44.199Z,0.08
2023-01-25T08:51:47.295Z,0.35
2023-01-25T08:55:49.338Z,0.45
2023-01-25T08:59:51.118Z,0.33
2023-01-25T09:03:54.168Z,0.07
2023-01-25T09:07:56.160Z,0.12
2023-01-25T09:11:58.202Z,0.04
2023-01-25T09:16:06.360Z,-0.02
2023-01-25T09:20:09.511Z,0.10
2023-01-25T09:24:12.013Z,0.13
2023-01-25T09:28:13.985Z,0.08
2023-01-25T09:32:15.914Z,0.19
2023-01-25T09:36:27.498Z,0.08
2023-01-25T09:40:38.924Z,0.29
2023-01-25T09:44:53.118Z,0.16
2023-01-25T09:49:36.681Z,0.21
2023-01-25T09:53:47.490Z,0.38
2023-01-25T09:57:53.833Z,0.37
2023-01-25T10:02:13.186Z,0.35
2023-01-25T10:06:17.080Z,0.53
2023-01-25T10:10:38.898Z,0.53
2023-01-25T10:14:40.930Z,0.53
2023-01-25T10:18:55.719Z,0.51
2023-01-25T10:23:07.955Z,0.62
2023-01-25T10:27:34.008Z,0.69
2023-01-25T10:31:46.522Z,0.71
2023-01-25T10:35:49.969Z,0.62
2023-01-25T10:40:04.093Z,0.55
2023-01-25T10:44:24.831Z,0.51
2023-01-25T10:48:31.139Z,0.78
2023-01-25T10:52:35.516Z,0.71
2023-01-25T10:56:40.289Z,0.73
2023-01-25T11:00:42.593Z,0.69
2023-01-25T11:04:47.723Z,0.50
2023-01-25T11:08:51.058Z,0.47
2023-01-25T11:13:21.443Z,0.55
2023-01-25T11:17:31.469Z,0.33
2023-01-25T11:21:34.835Z,0.44
2023-01-25T11:25:36.638Z,0.66
2023-01-25T11:29:38.899Z,0.68
2023-01-25T11:33:41.976Z,0.84
2023-01-25T11:38:17.995Z,0.82
2023-01-25T11:42:47.236Z,0.91
2023-01-25T11:47:07.174Z,1.03
2023-01-25T11:51:27.382Z,0.78
2023-01-25T11:55:32.953Z,0.63
2023-01-25T11:59:57.173Z,0.77
2023-01-25T12:04:36.734Z,0.85
2023-01-25T12:08:41.985Z,0.89
2023-01-25T12:12:56.589Z,0.46
2023-01-25T12:17:42.774Z,0.59
2023-01-25T12:22:28.761Z,0.81
2023-01-25T12:27:12.292Z,1.00
2023-01-25T12:31:22.142Z,0.69
2023-01-25T12:35:37.479Z,0.89
2023-01-25T12:39:47.700Z,1.09
2023-01-25T12:44:06.398Z,0.98
2023-01-25T12:48:31.155Z,0.91
2023-01-25T12:52:36.357Z,0.88
2023-01-25T12:56:58.312Z,0.81
2023-01-25T13:01:03.151Z,0.61
2023-01-25T13:05:33.837Z,0.78
2023-01-25T13:10:00.226Z,0.88
2023-01-25T13:14:17.692Z,0.69
2023-01-25T13:18:28.915Z,0.95
2023-01-25T13:22:45.746Z,0.71
2023-01-25T13:26:50.486Z,0.74
2023-01-25T13:30:53.571Z,0.91
2023-01-25T13:34:57.378Z,0.82
2023-01-25T13:38:59.323Z,0.77
2023-01-25T13:43:13.176Z,0.66
2023-01-25T13:47:22.109Z,0.60
2023-01-25T13:51:28.274Z,0.71
2023-01-25T13:55:40.516Z,0.67
2023-01-25T13:59:42.535Z,0.83
2023-01-25T14:03:47.480Z,0.92
2023-01-25T14:07:53.483Z,0.75
2023-01-25T14:11:58.568Z,0.41
2023-01-25T14:16:04.360Z,0.58
2023-01-25T14:20:21.031Z,0.71
2023-01-25T14:24:23.484Z,0.84
2023-01-25T14:28:26.634Z,0.48
2023-01-25T14:32:29.859Z,0.65
2023-01-25T14:36:35.075Z,0.66
2023-01-25T14:40:37.420Z,0.50
2023-01-25T14:44:39.992Z,0.46
2023-01-25T14:48:42.370Z,0.41
2023-01-25T14:52:44.247Z,0.53
2023-01-25T14:56:49.962Z,0.62
2023-01-25T15:00:57.653Z,0.39
2023-01-25T15:05:14.651Z,0.47
2023-01-25T15:09:34.507Z,0.59
2023-01-25T15:13:36.557Z,0.42
2023-01-25T15:17:50.766Z,0.43
2023-01-25T15:21:55.581Z,0.57
2023-01-25T15:25:59.965Z,0.35
2023-01-25T15:30:01.803Z,0.44
2023-01-25T15:34:04.905Z,0.51
2023-01-25T15:38:12.536Z,0.39
2023-01-25T15:42:14.161Z,0.55
2023-01-25T15:46:25.481Z,0.61
2023-01-25T15:50:29.134Z,0.57
2023-01-25T15:54:31.328Z,0.57
2023-01-25T15:58:36.460Z,0.52
2023-01-25T16:02:38.194Z,0.49
2023-01-25T16:06:45.902Z,0.52
2023-01-25T16:10:48.131Z,0.46
2023-01-25T16:14:49.707Z,0.49
2023-01-25T16:18:51.802Z,0.56
2023-01-25T16:22:53.783Z,0.43
2023-01-25T16:26:58.482Z,0.66
2023-01-25T16:31:00.734Z,0.64
2023-01-25T16:35:02.818Z,0.46
2023-01-25T16:39:25.359Z,0.67
2023-01-25T16:43:37.986Z,0.50
2023-01-25T16:47:44.194Z,0.23
2023-01-25T16:51:46.310Z,0.23
2023-01-25T16:55:49.472Z,0.28
2023-01-25T16:59:51.491Z,0.24
2023-01-25T17:03:54.894Z,0.54
2023-01-25T17:07:56.583Z,0.51
2023-01-25T17:11:58.584Z,0.58
2023-01-25T17:16:03.453Z,0.67
2023-01-25T17:20:05.977Z,0.48
2023-01-25T17:24:08.728Z,0.49
2023-01-25T17:28:10.722Z,0.64
2023-01-25T17:32:12.666Z,0.46
2023-01-25T17:36:15.331Z,0.42
2023-01-25T17:40:17.115Z,0.59
2023-01-25T17:44:21.405Z,0.48
2023-01-25T17:48:23.493Z,0.37
2023-01-25T17:52:25.537Z,0.57
2023-01-25T17:56:27.651Z,0.33
2023-01-25T18:00:29.772Z,0.42
2023-01-25T18:04:33.672Z,0.45
2023-01-25T18:08:46.559Z,0.63
2023-01-25T18:13:03.760Z,0.65
2023-01-25T18:17:07.280Z,0.63
2023-01-25T18:21:14.918Z,0.75
2023-01-25T18:25:34.595Z,0.71
2023-01-25T18:29:39.352Z,0.55
2023-01-25T18:33:41.450Z,0.63
2023-01-25T18:37:45.818Z,0.55
2023-01-25T18:41:49.903Z,0.57
2023-01-25T18:45:56.634Z,0.76
2023-01-25T18:49:58.869Z,0.61
2023-01-25T18:54:01.283Z,0.65
2023-01-25T18:58:04.587Z,0.63
2023-01-25T19:02:07.956Z,0.67
2023-01-25T19:06:10.661Z,0.64
2023-01-25T19:10:16.688Z,0.51
2023-01-25T19:14:24.579Z,0.69
2023-01-25T19:18:30.776Z,0.64
2023-01-25T19:22:32.659Z,0.62
2023-01-25T19:26:34.638Z,0.45
2023-01-25T19:30:36.679Z,0.53
2023-01-25T19:34:38.801Z,0.47
2023-01-25T19:38:41.294Z,0.33
2023-01-25T19:42:42.989Z,0.34
2023-01-25T19:46:44.966Z,0.24
2023-01-25T19:50:46.933Z,0.36
2023-01-25T19:54:48.924Z,0.46
2023-01-25T19:58:51.150Z,0.34
2023-01-25T20:02:52.819Z,0.37
2023-01-25T20:06:54.954Z,0.50
2023-01-25T20:11:01.835Z,0.40
2023-01-25T20:15:03.827Z,0.47
2023-01-25T20:19:05.983Z,0.35
2023-01-25T20:23:08.128Z,0.41
2023-01-25T20:27:09.997Z,0.51
2023-01-25T20:31:26.942Z,0.59
2023-01-25T20:35:29.837Z,0.51
2023-01-25T20:39:31.987Z,0.80
2023-01-25T20:43:34.689Z,0.91
2023-01-25T20:47:36.461Z,0.81
2023-01-25T20:51:38.563Z,0.94
2023-01-25T20:55:40.712Z,0.58
2023-01-25T20:59:42.888Z,0.65
2023-01-25T21:03:46.567Z,0.81
2023-01-25T21:07:48.486Z,0.94
2023-01-25T21:11:50.634Z,0.94
2023-01-25T21:16:14.958Z,0.80
2023-01-25T21:20:17.185Z,0.76
2023-01-25T21:24:19.163Z,0.67
2023-01-25T21:28:21.211Z,0.84
2023-01-25T21:32:23.520Z,0.90
2023-01-25T21:36:25.990Z,0.75
2023-01-25T21:40:28.996Z,0.81
2023-01-25T21:44:49.372Z,0.88
2023-01-25T21:49:29.300Z,0.91
2023-01-25T21:53:31.226Z,1.01
2023-01-25T21:57:33.379Z,1.02
2023-01-25T22:01:35.324Z,0.96
2023-01-25T22:05:37.037Z,1.05
2023-01-25T22:09:39.123Z,1.05
2023-01-25T22:13:41.514Z,0.94
2023-01-25T22:17:43.822Z,0.93
2023-01-25T22:21:46.280Z,0.86
2023-01-25T22:25:49.588Z,0.95
2023-01-25T22:29:51.654Z,0.96
2023-01-25T22:33:54.887Z,1.02
2023-01-25T22:37:56.903Z,0.80
2023-01-25T22:41:58.881Z,0.94
2023-01-25T22:46:01.369Z,1.05
2023-01-25T22:50:03.217Z,1.07
2023-01-25T22:54:05.610Z,1.06
2023-01-25T22:58:08.402Z,1.11
2023-01-25T23:02:10.500Z,0.90
2023-01-25T23:06:15.106Z,0.86
2023-01-25T23:10:17.801Z,0.99
2023-01-25T23:14:38.422Z,0.74
2023-01-25T23:18:52.679Z,0.96
2023-01-25T23:22:54.693Z,0.95
2023-01-25T23:26:56.742Z,0.94
2023-01-25T23:31:17.233Z,1.06
2023-01-25T23:35:19.954Z,1.04
2023-01-25T23:39:23.658Z,1.11
2023-01-25T23:43:25.707Z,1.01
2023-01-25T23:47:30.800Z,1.10
2023-01-25T23:51:33.054Z,1.06
2023-01-25T23:55:35.071Z,1.20
2023-01-25T23:59:37.583Z,1.23
